createdAt,value
2018-05-04T00:01:51.781Z,5.40
2018-05-04T00:06:53.154Z,5.20
2018-05-04T00:11:54.457Z,5.10
2018-05-04T00:16:55.774Z,5.20
2018-05-04T00:21:57.123Z,5.30
2018-05-04T00:26:59.551Z,5.20
2018-05-04T00:32:01.748Z,5.10
2018-05-04T00:37:03.004Z,5.60
2018-05-04T00:42:06.075Z,4.90
2018-05-04T00:47:09.378Z,4.90
2018-05-04T00:52:11.674Z,4.80
2018-05-04T00:57:15.010Z,4.60
2018-05-04T01:02:16.344Z,4.50
2018-05-04T01:07:18.648Z,4.40
2018-05-04T01:12:21.770Z,4.40
2018-05-04T01:17:24.154Z,4.40
2018-05-04T01:22:25.636Z,4.50
2018-05-04T01:27:27.177Z,4.50
2018-05-04T01:32:29.351Z,4.80
2018-05-04T01:37:31.508Z,4.90
2018-05-04T01:42:33.002Z,4.80
2018-05-04T01:47:36.174Z,4.70
2018-05-04T01:52:38.394Z,4.50
2018-05-04T01:57:39.843Z,4.50
2018-05-04T02:02:41.318Z,4.40
2018-05-04T02:07:45.527Z,4.20
2018-05-04T02:12:47.899Z,4.10
2018-05-04T02:17:49.182Z,4.20
2018-05-04T02:22:50.543Z,4.20
2018-05-04T02:27:51.903Z,4.20
2018-05-04T02:32:53.268Z,4.20
2018-05-04T02:37:54.636Z,4.10
2018-05-04T02:42:56.015Z,4.10
2018-05-04T02:47:58.157Z,4.00
2018-05-04T02:52:59.490Z,3.90
2018-05-04T02:58:00.778Z,4.30
2018-05-04T03:03:02.812Z,4.00
2018-05-04T03:08:05.179Z,4.00
2018-05-04T03:13:06.530Z,4.00
2018-05-04T03:18:07.945Z,4.30
2018-05-04T03:23:09.290Z,4.30
2018-05-04T03:28:10.701Z,4.10
2018-05-04T03:33:12.049Z,3.80
2018-05-04T03:38:13.403Z,3.70
2018-05-04T03:43:14.694Z,3.80
2018-05-04T03:48:17.995Z,4.00
2018-05-04T03:53:20.386Z,4.10
2018-05-04T03:58:33.977Z,4.30
2018-05-04T04:03:47.703Z,4.50
2018-05-04T04:08:49.053Z,4.70
2018-05-04T04:13:51.381Z,4.20
2018-05-04T04:18:54.486Z,4.20
2018-05-04T04:23:57.555Z,4.20
2018-05-04T04:28:59.063Z,4.20
2018-05-04T04:34:00.482Z,4.50
2018-05-04T04:39:02.930Z,4.60
2018-05-04T04:44:05.410Z,5.00
2018-05-04T04:49:08.549Z,5.10
2018-05-04T04:54:09.952Z,5.10
2018-05-04T04:59:11.406Z,7.30
2018-05-04T05:04:13.905Z,8.60
2018-05-04T05:09:16.054Z,10.00
2018-05-04T05:14:17.438Z,10.00
2018-05-04T05:19:18.906Z,11.30
2018-05-04T05:24:22.338Z,11.80
2018-05-04T05:29:24.473Z,12.90
2018-05-04T05:34:26.849Z,12.60
2018-05-04T05:39:33.573Z,14.10
2018-05-04T05:44:34.916Z,14.90
2018-05-04T05:49:36.255Z,15.00
2018-05-04T05:54:37.708Z,15.10
2018-05-04T05:59:40.855Z,12.00
2018-05-04T06:04:42.339Z,12.00
2018-05-04T06:09:43.812Z,12.10
2018-05-04T06:14:45.359Z,14.40
2018-05-04T06:19:47.728Z,16.30
2018-05-04T06:24:50.874Z,15.90
2018-05-04T06:29:54.206Z,14.60
2018-05-04T06:34:57.293Z,13.80
2018-05-04T06:39:59.366Z,13.60
2018-05-04T06:45:02.750Z,13.60
2018-05-04T06:50:06.155Z,13.90
2018-05-04T06:55:07.523Z,14.30
2018-05-04T07:00:08.920Z,14.90
2018-05-04T07:05:11.107Z,15.10
2018-05-04T07:10:13.242Z,15.20
2018-05-04T07:15:14.626Z,15.10
2018-05-04T07:20:16.081Z,14.00
2018-05-04T07:25:18.501Z,13.70
2018-05-04T07:30:19.828Z,13.30
2018-05-04T07:35:22.134Z,12.90
2018-05-04T07:40:24.473Z,13.70
2018-05-04T07:45:26.938Z,13.90
2018-05-04T07:50:29.442Z,13.70
2018-05-04T07:55:30.926Z,14.00
2018-05-04T08:00:32.317Z,13.70
2018-05-04T08:05:33.758Z,14.50
2018-05-04T08:10:35.124Z,14.00
2018-05-04T08:15:36.452Z,13.50
2018-05-04T08:20:38.903Z,13.90
2018-05-04T08:25:40.260Z,14.00
2018-05-04T08:30:42.621Z,14.50
2018-05-04T08:35:45.001Z,14.20
2018-05-04T08:40:46.440Z,14.80
2018-05-04T08:45:47.677Z,14.40
2018-05-04T08:50:49.879Z,15.20
2018-05-04T08:55:53.165Z,15.10
2018-05-04T09:00:55.475Z,15.20
2018-05-04T09:05:58.798Z,15.50
2018-05-04T09:11:00.141Z,15.60
2018-05-04T09:16:01.440Z,15.40
2018-05-04T09:21:03.489Z,15.40
2018-05-04T09:26:04.822Z,15.30
2018-05-04T09:31:06.063Z,16.50
2018-05-04T09:36:07.353Z,16.10
2018-05-04T09:41:08.678Z,16.30
2018-05-04T09:46:09.980Z,17.20
2018-05-04T09:51:12.359Z,16.50
2018-05-04T09:56:14.861Z,16.90
2018-05-04T10:01:16.198Z,18.00
2018-05-04T10:06:17.643Z,17.70
2018-05-04T10:11:20.023Z,17.80
2018-05-04T10:16:21.482Z,18.00
2018-05-04T10:21:23.733Z,19.00
2018-05-04T10:26:25.874Z,18.70
2018-05-04T10:31:29.337Z,18.70
2018-05-04T10:36:30.592Z,18.20
2018-05-04T10:41:32.837Z,18.70
2018-05-04T10:46:34.360Z,18.70
2018-05-04T10:51:35.872Z,19.50
2018-05-04T10:56:37.389Z,19.80
2018-05-04T11:01:38.893Z,18.80
2018-05-04T11:06:40.318Z,19.30
2018-05-04T11:11:41.780Z,18.90
2018-05-04T11:16:43.745Z,18.70
2018-05-04T11:21:46.911Z,18.40
2018-05-04T11:26:50.163Z,18.40
2018-05-04T11:31:52.382Z,19.30
2018-05-04T11:36:53.770Z,19.30
2018-05-04T11:41:55.338Z,19.10
2018-05-04T11:46:57.670Z,19.10
2018-05-04T11:51:59.113Z,19.70
2018-05-04T11:57:00.486Z,20.30
2018-05-04T12:02:01.886Z,18.80
2018-05-04T12:07:05.276Z,18.90
2018-05-04T12:12:06.576Z,20.10
2018-05-04T12:17:07.855Z,19.90
2018-05-04T12:22:09.131Z,19.20
2018-05-04T12:27:10.557Z,20.20
2018-05-04T12:32:12.941Z,20.30
2018-05-04T12:37:14.358Z,19.50
2018-05-04T12:42:16.699Z,19.30
2018-05-04T12:47:18.270Z,19.80
2018-05-04T12:52:19.635Z,19.20
2018-05-04T12:57:21.091Z,19.80
2018-05-04T13:02:22.555Z,19.90
2018-05-04T13:07:23.933Z,19.80
2018-05-04T13:12:26.447Z,19.70
2018-05-04T13:17:28.727Z,20.60
2018-05-04T13:22:31.095Z,20.60
2018-05-04T13:27:32.569Z,20.20
2018-05-04T13:32:34.150Z,19.70
2018-05-04T13:37:35.658Z,19.70
2018-05-04T13:42:37.331Z,20.20
2018-05-04T13:47:39.314Z,20.90
2018-05-04T13:52:41.672Z,20.90
2018-05-04T13:57:43.801Z,21.70
2018-05-04T14:02:45.369Z,22.00
2018-05-04T14:07:46.810Z,22.70
2018-05-04T14:12:48.349Z,22.20
2018-05-04T14:17:51.721Z,23.20
2018-05-04T14:22:53.077Z,22.20
2018-05-04T14:27:55.586Z,22.90
2018-05-04T14:32:57.367Z,23.40
2018-05-04T14:38:00.561Z,22.50
2018-05-04T14:43:02.382Z,23.10
2018-05-04T14:48:05.683Z,22.50
2018-05-04T14:53:08.937Z,23.50
2018-05-04T14:58:10.355Z,23.40
2018-05-04T15:03:12.597Z,23.50
2018-05-04T15:08:14.112Z,23.80
2018-05-04T15:13:16.321Z,25.30
2018-05-04T15:18:18.659Z,25.30
2018-05-04T15:23:20.151Z,26.00
2018-05-04T15:28:21.655Z,25.70
2018-05-04T15:33:23.857Z,26.60
2018-05-04T15:38:26.181Z,26.60
2018-05-04T15:43:29.745Z,25.90
2018-05-04T15:48:37.058Z,25.80
2018-05-04T15:53:38.358Z,25.60
2018-05-04T15:58:41.633Z,25.50
2018-05-04T16:03:43.183Z,25.40
2018-05-04T16:08:44.498Z,24.70
2018-05-04T16:13:46.596Z,24.60
2018-05-04T16:18:48.066Z,24.50
2018-05-04T16:23:50.455Z,23.70
2018-05-04T16:28:51.878Z,24.40
2018-05-04T16:33:54.020Z,24.10
2018-05-04T16:38:55.425Z,24.00
2018-05-04T16:43:58.625Z,24.80
2018-05-04T16:49:07.114Z,24.80
2018-05-04T16:54:08.511Z,24.60
2018-05-04T16:59:11.913Z,23.90
2018-05-04T17:04:13.394Z,23.30
2018-05-04T17:09:15.782Z,23.20
2018-05-04T17:14:17.188Z,23.70
2018-05-04T17:19:18.698Z,23.50
2018-05-04T17:24:21.061Z,23.60
2018-05-04T17:29:24.430Z,23.50
2018-05-04T17:34:27.676Z,22.40
2018-05-04T17:39:29.052Z,22.50
2018-05-04T17:44:31.350Z,22.40
2018-05-04T17:49:32.745Z,22.40
2018-05-04T17:54:35.143Z,22.00
2018-05-04T17:59:39.234Z,22.00
2018-05-04T18:04:41.112Z,22.00
2018-05-04T18:09:42.420Z,21.00
2018-05-04T18:14:43.833Z,20.40
2018-05-04T18:19:45.366Z,20.00
2018-05-04T18:24:46.696Z,19.40
2018-05-04T18:29:49.781Z,18.50
2018-05-04T18:34:51.138Z,18.50
2018-05-04T18:39:53.422Z,18.00
2018-05-04T18:44:55.771Z,17.40
2018-05-04T18:49:57.060Z,16.70
2018-05-04T18:54:59.506Z,15.60
2018-05-04T19:00:01.923Z,15.40
2018-05-04T19:05:04.253Z,14.90
2018-05-04T19:10:05.705Z,14.80
2018-05-04T19:15:07.978Z,14.50
2018-05-04T19:20:09.338Z,14.10
2018-05-04T19:25:10.712Z,13.90
2018-05-04T19:30:15.580Z,13.80
2018-05-04T19:35:21.631Z,12.80
2018-05-04T19:40:23.049Z,12.80
2018-05-04T19:45:24.428Z,12.50
2018-05-04T19:50:26.726Z,12.10
2018-05-04T19:55:29.142Z,12.10
2018-05-04T20:00:30.789Z,11.90
2018-05-04T20:05:32.279Z,11.70
2018-05-04T20:10:33.669Z,11.40
2018-05-04T20:15:39.335Z,11.30
2018-05-04T20:20:40.822Z,11.10
2018-05-04T20:25:42.111Z,11.10
2018-05-04T20:30:43.472Z,11.00
2018-05-04T20:35:45.861Z,11.10
2018-05-04T20:40:47.307Z,11.00
2018-05-04T20:45:48.635Z,10.80
2018-05-04T20:50:51.739Z,10.70
2018-05-04T20:55:53.714Z,10.70
2018-05-04T21:00:55.042Z,10.70
2018-05-04T21:05:57.524Z,10.60
2018-05-04T21:10:58.834Z,10.50
2018-05-04T21:16:00.190Z,9.70
2018-05-04T21:21:02.303Z,10.40
2018-05-04T21:26:06.899Z,10.40
2018-05-04T21:31:08.353Z,10.70
2018-05-04T21:36:09.751Z,10.80
2018-05-04T21:41:11.133Z,10.60
2018-05-04T21:46:13.473Z,10.50
2018-05-04T21:51:14.870Z,10.30
2018-05-04T21:56:18.053Z,9.90
2018-05-04T22:01:19.553Z,9.80
2018-05-04T22:06:21.012Z,9.70
2018-05-04T22:11:22.453Z,9.70
2018-05-04T22:16:24.747Z,9.40
2018-05-04T22:21:27.052Z,9.40
2018-05-04T22:26:32.449Z,9.20
2018-05-04T22:31:33.735Z,9.10
2018-05-04T22:36:35.775Z,8.80
2018-05-04T22:41:37.108Z,8.90
2018-05-04T22:46:39.425Z,8.70
2018-05-04T22:51:42.735Z,8.60
2018-05-04T22:56:45.117Z,8.50
2018-05-04T23:01:46.490Z,8.40
2018-05-04T23:06:48.275Z,8.40
2018-05-04T23:11:50.382Z,8.30
2018-05-04T23:16:52.263Z,8.30
2018-05-04T23:21:54.698Z,8.30
2018-05-04T23:26:57.614Z,8.10
2018-05-04T23:31:59.799Z,8.10
2018-05-04T23:37:01.482Z,8.10
2018-05-04T23:42:03.665Z,8.20
2018-05-04T23:47:05.971Z,8.20
2018-05-04T23:52:08.059Z,8.30
2018-05-04T23:57:10.499Z,8.30
